createdAt,value
2022-08-26T00:02:07.793Z,14.02
2022-08-26T00:04:36.341Z,14.15
2022-08-26T00:07:05.296Z,13.98
2022-08-26T00:09:38.927Z,13.73
2022-08-26T00:12:12.123Z,13.60
2022-08-26T00:14:41.356Z,13.63
2022-08-26T00:17:09.404Z,14.10
2022-08-26T00:19:37.832Z,13.65
2022-08-26T00:22:06.025Z,14.30
2022-08-26T00:24:34.330Z,14.82
2022-08-26T00:27:02.335Z,14.35
2022-08-26T00:29:34.913Z,13.32
2022-08-26T00:32:05.837Z,13.35
2022-08-26T00:34:34.214Z,14.05
2022-08-26T00:37:02.597Z,13.60
2022-08-26T00:39:31.355Z,13.50
2022-08-26T00:42:00.532Z,14.05
2022-08-26T00:44:28.643Z,14.13
2022-08-26T00:47:03.881Z,14.55
2022-08-26T00:49:39.583Z,14.40
2022-08-26T00:52:11.989Z,15.05
2022-08-26T00:54:46.934Z,13.98
2022-08-26T00:57:18.672Z,14.20
2022-08-26T00:59:50.101Z,14.43
2022-08-26T01:02:21.081Z,13.70
2022-08-26T01:04:55.966Z,14.43
2022-08-26T01:07:27.570Z,14.15
2022-08-26T01:09:59.982Z,14.40
2022-08-26T01:12:30.196Z,14.75
2022-08-26T01:17:27.581Z,14.75
2022-08-26T01:20:02.491Z,15.63
2022-08-26T01:22:35.705Z,16.52
2022-08-26T01:25:07.134Z,14.70
2022-08-26T01:27:36.832Z,14.52
2022-08-26T01:30:07.411Z,14.57
2022-08-26T01:32:36.500Z,15.40
2022-08-26T01:35:08.731Z,14.68
2022-08-26T01:37:40.446Z,15.68
2022-08-26T01:40:17.859Z,15.35
2022-08-26T01:42:47.395Z,13.90
2022-08-26T01:45:20.819Z,14.45
2022-08-26T01:47:56.806Z,14.05
2022-08-26T01:50:30.680Z,14.65
2022-08-26T01:53:02.107Z,14.80
2022-08-26T01:55:34.023Z,14.93
2022-08-26T01:58:06.767Z,14.82
2022-08-26T02:00:36.553Z,13.32
2022-08-26T02:03:22.387Z,14.80
2022-08-26T02:05:55.857Z,14.02
2022-08-26T02:08:30.155Z,14.57
2022-08-26T02:11:00.088Z,14.80
2022-08-26T02:13:31.458Z,15.32
2022-08-26T02:16:00.890Z,14.68
2022-08-26T02:18:30.672Z,15.63
2022-08-26T02:20:58.764Z,14.98
2022-08-26T02:23:28.182Z,14.68
2022-08-26T02:26:03.866Z,14.53
2022-08-26T02:28:38.564Z,14.23
2022-08-26T02:31:07.187Z,13.77
2022-08-26T02:33:36.468Z,14.80
2022-08-26T02:36:05.688Z,14.25
2022-08-26T02:38:37.256Z,14.68
2022-08-26T02:41:10.173Z,15.25
2022-08-26T02:43:38.356Z,14.50
2022-08-26T02:46:07.406Z,14.07
2022-08-26T02:48:35.495Z,14.57
2022-08-26T02:51:03.884Z,14.30
2022-08-26T02:53:35.629Z,14.48
2022-08-26T02:56:04.811Z,15.05
2022-08-26T02:58:34.662Z,15.02
2022-08-26T03:01:04.846Z,14.85
2022-08-26T03:03:34.189Z,14.20
2022-08-26T03:06:02.376Z,14.15
2022-08-26T03:08:30.336Z,16.98
2022-08-26T03:10:58.964Z,16.90
2022-08-26T03:13:29.877Z,17.33
2022-08-26T03:16:01.423Z,18.23
2022-08-26T03:18:31.015Z,17.75
2022-08-26T03:20:59.541Z,17.45
2022-08-26T03:23:27.849Z,17.38
2022-08-26T03:25:56.851Z,18.05
2022-08-26T03:28:27.046Z,18.42
2022-08-26T03:30:54.541Z,17.05
2022-08-26T03:33:23.995Z,15.50
2022-08-26T03:35:53.310Z,16.53
2022-08-26T03:38:22.527Z,15.60
2022-08-26T03:40:50.537Z,15.70
2022-08-26T03:43:18.698Z,16.50
2022-08-26T03:45:46.733Z,16.10
2022-08-26T03:48:14.946Z,15.52
2022-08-26T03:50:44.705Z,15.55
2022-08-26T03:53:13.379Z,16.05
2022-08-26T03:55:43.337Z,16.30
2022-08-26T03:58:12.305Z,14.85
2022-08-26T04:00:40.366Z,16.48
2022-08-26T04:03:09.941Z,14.40
2022-08-26T04:05:39.063Z,15.60
2022-08-26T04:08:08.547Z,16.52
2022-08-26T04:10:38.913Z,15.95
2022-08-26T04:13:07.525Z,16.42
2022-08-26T04:15:35.754Z,15.98
2022-08-26T04:18:04.351Z,16.23
2022-08-26T04:20:32.507Z,17.10
2022-08-26T04:23:00.625Z,16.50
2022-08-26T04:25:30.378Z,16.00
2022-08-26T04:27:59.010Z,16.55
2022-08-26T04:30:27.661Z,17.13
2022-08-26T04:32:55.783Z,16.98
2022-08-26T04:35:25.921Z,17.30
2022-08-26T04:37:55.313Z,17.67
2022-08-26T04:40:24.079Z,16.40
2022-08-26T04:42:55.718Z,16.48
2022-08-26T04:45:25.471Z,17.52
2022-08-26T04:47:56.446Z,17.13
2022-08-26T04:50:25.800Z,18.02
2022-08-26T04:55:25.214Z,16.10
2022-08-26T04:58:10.231Z,17.30
2022-08-26T05:00:39.647Z,17.00
2022-08-26T05:03:10.594Z,16.38
2022-08-26T05:05:41.142Z,17.08
2022-08-26T05:08:10.039Z,16.75
2022-08-26T05:10:43.810Z,17.33
2022-08-26T05:13:15.590Z,17.73
2022-08-26T05:15:44.753Z,17.90
2022-08-26T05:18:14.293Z,18.42
2022-08-26T05:20:43.299Z,18.00
2022-08-26T05:23:11.263Z,19.92
2022-08-26T05:25:41.434Z,20.88
2022-08-26T05:28:10.394Z,21.23
2022-08-26T05:30:40.442Z,21.15
2022-08-26T05:33:09.439Z,20.40
2022-08-26T05:35:39.380Z,20.58
2022-08-26T05:38:12.634Z,19.50
2022-08-26T05:40:47.281Z,20.67
2022-08-26T05:43:15.819Z,19.00
2022-08-26T05:45:49.919Z,19.17
2022-08-26T05:48:22.649Z,20.10
2022-08-26T05:50:54.274Z,20.92
2022-08-26T05:53:25.921Z,20.55
2022-08-26T05:55:55.493Z,20.33
2022-08-26T05:58:24.383Z,21.70
2022-08-26T06:01:00.355Z,21.60
2022-08-26T06:03:29.371Z,22.13
2022-08-26T06:05:57.611Z,21.58
2022-08-26T06:08:25.728Z,20.60
2022-08-26T06:10:55.768Z,21.50
2022-08-26T06:13:26.801Z,21.58
2022-08-26T06:15:56.649Z,21.20
2022-08-26T06:18:32.532Z,22.00
2022-08-26T06:21:00.846Z,21.05
2022-08-26T06:23:47.409Z,20.63
2022-08-26T06:26:16.967Z,20.77
2022-08-26T06:28:45.810Z,19.95
2022-08-26T06:31:14.558Z,19.90
2022-08-26T06:33:44.590Z,20.17
2022-08-26T06:38:47.641Z,20.63
2022-08-26T06:41:15.887Z,19.65
2022-08-26T06:43:43.966Z,21.48
2022-08-26T06:46:14.123Z,20.77
2022-08-26T06:48:43.527Z,18.77
2022-08-26T06:51:14.727Z,19.67
2022-08-26T06:53:45.561Z,20.48
2022-08-26T06:56:15.047Z,19.58
2022-08-26T06:58:43.102Z,19.35
2022-08-26T07:01:19.700Z,19.75
2022-08-26T07:03:51.853Z,19.67
2022-08-26T07:06:22.884Z,18.90
2022-08-26T07:08:53.398Z,17.50
2022-08-26T07:11:22.745Z,19.63
2022-08-26T07:13:52.199Z,18.27
2022-08-26T07:16:20.424Z,18.83
2022-08-26T07:18:52.965Z,17.83
2022-08-26T07:21:22.339Z,17.00
2022-08-26T07:23:52.348Z,19.08
2022-08-26T07:26:23.217Z,17.38
2022-08-26T07:28:54.912Z,17.17
2022-08-26T07:31:24.883Z,17.52
2022-08-26T07:36:24.181Z,17.08
2022-08-26T07:38:53.503Z,17.27
2022-08-26T07:41:24.189Z,16.47
2022-08-26T07:43:52.609Z,16.20
2022-08-26T07:46:27.153Z,15.85
2022-08-26T07:49:00.129Z,15.80
2022-08-26T07:53:56.691Z,16.40
2022-08-26T07:56:25.569Z,15.48
2022-08-26T07:58:54.377Z,16.13
2022-08-26T08:01:24.114Z,15.95
2022-08-26T08:03:53.306Z,16.17
2022-08-26T08:06:27.152Z,15.77
2022-08-26T08:08:55.888Z,14.25
2022-08-26T08:11:24.635Z,15.13
2022-08-26T08:13:56.390Z,15.63
2022-08-26T08:16:26.104Z,14.07
2022-08-26T08:18:54.574Z,14.68
2022-08-26T08:21:25.464Z,13.97
2022-08-26T08:23:55.335Z,14.68
2022-08-26T08:26:24.866Z,13.88
2022-08-26T08:28:55.689Z,14.40
2022-08-26T08:31:54.548Z,13.65
2022-08-26T08:34:13.721Z,14.55
2022-08-26T08:36:43.181Z,15.18
2022-08-26T08:39:11.751Z,14.93
2022-08-26T08:41:52.761Z,13.95
2022-08-26T08:46:55.267Z,12.85
2022-08-26T08:49:25.961Z,13.40
2022-08-26T08:52:00.639Z,15.00
2022-08-26T08:54:30.065Z,13.60
2022-08-26T08:57:04.161Z,14.00
2022-08-26T08:59:34.999Z,13.43
2022-08-26T09:02:18.429Z,13.43
2022-08-26T09:05:06.841Z,13.30
2022-08-26T09:07:40.212Z,13.82
2022-08-26T09:10:25.659Z,14.05
2022-08-26T09:12:54.035Z,14.25
2022-08-26T09:15:28.551Z,14.18
2022-08-26T09:18:06.765Z,14.13
2022-08-26T09:20:45.630Z,13.20
2022-08-26T09:23:15.507Z,13.02
2022-08-26T09:25:51.046Z,13.18
2022-08-26T09:28:21.173Z,12.82
2022-08-26T09:31:03.047Z,13.10
2022-08-26T09:33:34.699Z,15.48
2022-08-26T09:36:24.838Z,13.93
2022-08-26T09:38:55.182Z,13.38
2022-08-26T09:41:27.044Z,14.00
2022-08-26T09:44:17.150Z,12.80
2022-08-26T09:46:57.256Z,13.85
2022-08-26T09:49:35.609Z,13.07
2022-08-26T09:52:08.560Z,14.52
2022-08-26T09:54:39.782Z,13.45
2022-08-26T09:57:28.412Z,12.75
2022-08-26T09:59:57.650Z,12.90
2022-08-26T10:02:47.709Z,12.25
2022-08-26T10:05:29.692Z,12.45
2022-08-26T10:07:59.550Z,13.35
2022-08-26T10:10:34.785Z,12.48
2022-08-26T10:13:10.872Z,12.50
2022-08-26T10:15:50.725Z,12.95
2022-08-26T10:18:24.850Z,12.73
2022-08-26T10:20:58.820Z,13.00
2022-08-26T10:23:32.538Z,11.85
2022-08-26T10:26:07.053Z,12.45
2022-08-26T10:28:41.314Z,12.82
2022-08-26T10:31:27.353Z,11.57
2022-08-26T10:34:00.343Z,12.50
2022-08-26T10:39:44.560Z,12.15
2022-08-26T10:42:23.048Z,11.32
2022-08-26T10:44:55.069Z,11.90
2022-08-26T10:47:32.455Z,10.70
2022-08-26T10:50:03.182Z,11.98
2022-08-26T10:52:44.912Z,11.00
2022-08-26T10:55:22.121Z,10.45
2022-08-26T10:57:59.344Z,11.80
2022-08-26T11:00:58.392Z,10.55
2022-08-26T11:03:35.643Z,10.77
2022-08-26T11:06:24.570Z,11.27
2022-08-26T11:08:53.873Z,11.50
2022-08-26T11:11:50.167Z,11.25
2022-08-26T11:14:53.590Z,11.27
2022-08-26T11:17:59.997Z,11.55
2022-08-26T11:20:37.528Z,11.48
2022-08-26T11:23:40.423Z,12.57
2022-08-26T11:26:35.444Z,12.70
2022-08-26T11:29:13.136Z,13.43
2022-08-26T11:31:57.547Z,12.82
2022-08-26T11:34:52.364Z,12.98
2022-08-26T11:37:22.740Z,10.95
2022-08-26T11:39:57.152Z,10.45
2022-08-26T11:42:34.277Z,10.88
2022-08-26T11:45:23.674Z,10.80
2022-08-26T11:47:54.623Z,10.32
2022-08-26T11:50:26.111Z,10.40
2022-08-26T11:52:56.321Z,9.93
2022-08-26T11:55:25.354Z,10.80
2022-08-26T11:57:56.279Z,10.30
2022-08-26T12:00:28.374Z,11.10
2022-08-26T12:03:08.548Z,10.95
2022-08-26T12:05:43.341Z,11.98
2022-08-26T12:08:17.938Z,12.05
2022-08-26T12:10:46.642Z,13.98
2022-08-26T12:13:23.201Z,11.48
2022-08-26T12:15:55.642Z,10.25
2022-08-26T12:18:29.555Z,10.40
2022-08-26T12:21:01.411Z,8.75
2022-08-26T12:23:43.363Z,7.55
2022-08-26T12:26:20.172Z,7.85
2022-08-26T12:28:50.958Z,8.02
2022-08-26T12:31:26.820Z,7.32
2022-08-26T12:33:59.174Z,7.13
2022-08-26T12:36:31.646Z,6.30
2022-08-26T12:39:08.099Z,6.13
2022-08-26T12:41:46.507Z,5.80
2022-08-26T12:44:35.207Z,5.88
2022-08-26T12:47:06.414Z,5.25
2022-08-26T12:49:36.438Z,5.38
2022-08-26T12:52:06.639Z,6.60
2022-08-26T12:54:56.728Z,7.00
2022-08-26T12:57:30.431Z,7.57
2022-08-26T13:00:26.277Z,8.63
2022-08-26T13:02:56.985Z,7.38
2022-08-26T13:05:33.001Z,8.18
2022-08-26T13:08:16.467Z,9.80
2022-08-26T13:10:47.348Z,12.45
2022-08-26T13:13:15.702Z,10.07
2022-08-26T13:15:44.782Z,9.90
2022-08-26T13:18:12.800Z,10.73
2022-08-26T13:20:45.121Z,12.15
2022-08-26T13:23:13.647Z,12.20
2022-08-26T13:25:42.043Z,11.88
2022-08-26T13:28:09.949Z,11.88
2022-08-26T13:30:38.074Z,12.52
2022-08-26T13:33:06.225Z,12.55
2022-08-26T13:35:34.461Z,12.35
2022-08-26T13:38:03.754Z,12.75
2022-08-26T13:40:34.621Z,11.88
2022-08-26T13:43:02.932Z,11.90
2022-08-26T13:45:31.675Z,12.05
2022-08-26T13:48:00.438Z,12.45
2022-08-26T13:50:28.458Z,12.48
2022-08-26T13:52:56.432Z,12.65
2022-08-26T13:55:25.854Z,11.63
2022-08-26T13:57:53.966Z,11.02
2022-08-26T14:00:22.924Z,9.18
2022-08-26T14:02:51.154Z,8.30
2022-08-26T14:05:19.315Z,7.90
2022-08-26T14:07:47.505Z,7.68
2022-08-26T14:10:15.586Z,7.22
2022-08-26T14:12:45.816Z,5.88
2022-08-26T14:15:16.258Z,7.20
2022-08-26T14:17:44.922Z,6.82
2022-08-26T14:20:16.968Z,8.02
2022-08-26T14:23:03.561Z,8.25
2022-08-26T14:25:34.670Z,8.70
2022-08-26T14:28:04.516Z,10.73
2022-08-26T14:33:00.578Z,11.88
2022-08-26T14:35:30.696Z,11.38
2022-08-26T14:37:59.176Z,11.18
2022-08-26T14:40:30.673Z,11.05
2022-08-26T14:42:59.922Z,10.00
2022-08-26T14:45:29.823Z,10.47
2022-08-26T14:50:27.839Z,8.80
2022-08-26T14:53:13.414Z,8.18
2022-08-26T14:55:43.391Z,7.05
2022-08-26T15:00:40.490Z,8.18
2022-08-26T15:03:09.112Z,7.45
2022-08-26T15:05:37.436Z,6.68
2022-08-26T15:08:10.370Z,6.50
2022-08-26T15:10:39.015Z,6.60
2022-08-26T15:13:07.168Z,6.82
2022-08-26T15:15:35.485Z,6.60
2022-08-26T15:18:05.535Z,5.35
2022-08-26T15:23:06.026Z,6.25
2022-08-26T15:25:34.465Z,6.07
2022-08-26T15:28:02.589Z,6.03
2022-08-26T15:30:30.561Z,6.60
2022-08-26T15:32:58.897Z,7.85
2022-08-26T15:35:28.301Z,7.95
2022-08-26T15:38:01.202Z,8.35
2022-08-26T15:40:29.392Z,9.85
2022-08-26T15:43:11.429Z,11.18
2022-08-26T15:45:45.633Z,12.35
2022-08-26T15:48:13.998Z,12.35
2022-08-26T15:50:51.579Z,11.95
2022-08-26T15:53:19.874Z,11.18
2022-08-26T15:55:48.234Z,10.18
2022-08-26T15:58:17.936Z,9.32
2022-08-26T16:00:45.996Z,9.27
2022-08-26T16:03:14.023Z,9.75
2022-08-26T16:05:44.060Z,9.65
2022-08-26T16:08:15.467Z,9.32
2022-08-26T16:10:50.011Z,9.35
2022-08-26T16:13:20.036Z,9.90
2022-08-26T16:15:48.750Z,10.20
2022-08-26T16:18:17.717Z,10.85
2022-08-26T16:20:57.823Z,10.13
2022-08-26T16:23:40.400Z,11.00
2022-08-26T16:26:12.528Z,11.45
2022-08-26T16:28:40.716Z,11.35
2022-08-26T16:31:09.552Z,11.85
2022-08-26T16:33:39.005Z,11.43
2022-08-26T16:36:08.208Z,12.18
2022-08-26T16:38:37.674Z,12.00
2022-08-26T16:41:08.245Z,11.57
2022-08-26T16:43:36.568Z,11.77
2022-08-26T16:46:06.955Z,12.02
2022-08-26T16:48:36.466Z,11.45
2022-08-26T16:51:04.615Z,11.95
2022-08-26T16:53:33.633Z,11.75
2022-08-26T16:56:01.605Z,11.38
2022-08-26T16:58:31.341Z,11.40
2022-08-26T17:00:59.384Z,10.60
2022-08-26T17:03:27.566Z,10.45
2022-08-26T17:05:55.673Z,10.95
2022-08-26T17:08:28.345Z,11.40
2022-08-26T17:10:57.272Z,10.68
2022-08-26T17:13:35.381Z,11.57
2022-08-26T17:16:07.477Z,11.40
2022-08-26T17:18:37.004Z,10.85
2022-08-26T17:21:07.214Z,10.85
2022-08-26T17:23:35.607Z,10.68
2022-08-26T17:26:04.044Z,11.20
2022-08-26T17:28:32.282Z,10.05
2022-08-26T17:31:01.095Z,10.90
2022-08-26T17:33:31.146Z,10.93
2022-08-26T17:36:00.337Z,11.38
2022-08-26T17:38:29.239Z,12.07
2022-08-26T17:40:58.055Z,11.32
2022-08-26T17:43:26.712Z,11.00
2022-08-26T17:45:59.062Z,11.55
2022-08-26T17:48:37.572Z,11.68
2022-08-26T17:51:08.384Z,11.73
2022-08-26T17:53:37.192Z,11.48
2022-08-26T17:56:08.223Z,11.20
2022-08-26T17:58:36.666Z,10.63
2022-08-26T18:01:06.337Z,10.80
2022-08-26T18:03:36.483Z,10.40
2022-08-26T18:08:36.923Z,9.55
2022-08-26T18:11:09.940Z,10.43
2022-08-26T18:13:38.132Z,10.23
2022-08-26T18:16:17.629Z,10.20
2022-08-26T18:18:47.767Z,10.45
2022-08-26T18:23:45.131Z,10.05
2022-08-26T18:26:18.277Z,9.98
2022-08-26T18:28:46.282Z,9.30
2022-08-26T18:31:15.330Z,10.20
2022-08-26T18:33:44.055Z,9.85
2022-08-26T18:36:18.525Z,9.75
2022-08-26T18:38:47.748Z,9.20
2022-08-26T18:41:20.667Z,10.20
2022-08-26T18:43:50.445Z,9.20
2022-08-26T18:46:19.915Z,9.70
2022-08-26T18:48:51.181Z,9.95
2022-08-26T18:51:23.502Z,9.43
2022-08-26T18:53:52.005Z,8.45
2022-08-26T18:56:20.666Z,9.80
2022-08-26T18:58:49.515Z,9.52
2022-08-26T19:01:19.963Z,10.05
2022-08-26T19:03:50.134Z,9.63
2022-08-26T19:06:21.276Z,9.93
2022-08-26T19:08:50.173Z,10.10
2022-08-26T19:11:32.408Z,9.27
2022-08-26T19:14:07.639Z,10.13
2022-08-26T19:16:36.179Z,10.18
2022-08-26T19:19:04.782Z,9.65
2022-08-26T19:21:35.699Z,11.60
2022-08-26T19:24:07.174Z,9.63
2022-08-26T19:26:36.592Z,10.23
2022-08-26T19:29:04.800Z,10.23
2022-08-26T19:31:33.510Z,9.07
2022-08-26T19:34:01.686Z,9.02
2022-08-26T19:36:31.080Z,8.90
2022-08-26T19:39:03.240Z,9.23
2022-08-26T19:41:36.879Z,9.13
2022-08-26T19:44:08.328Z,9.18
2022-08-26T19:49:09.933Z,9.63
2022-08-26T19:51:38.061Z,11.52
2022-08-26T19:54:07.849Z,11.07
2022-08-26T19:56:36.690Z,10.35
2022-08-26T19:59:04.795Z,12.43
2022-08-26T20:01:32.979Z,12.63
2022-08-26T20:04:01.041Z,14.30
2022-08-26T20:06:29.099Z,11.95
2022-08-26T20:08:57.082Z,12.73
2022-08-26T20:11:26.692Z,12.25
2022-08-26T20:13:55.309Z,14.23
2022-08-26T20:16:23.476Z,14.02
2022-08-26T20:19:08.687Z,14.98
2022-08-26T20:21:39.313Z,13.93
2022-08-26T20:24:10.476Z,14.48
2022-08-26T20:26:42.475Z,14.73
2022-08-26T20:29:11.739Z,14.90
2022-08-26T20:31:40.421Z,15.00
2022-08-26T20:34:08.770Z,15.63
2022-08-26T20:36:40.268Z,15.07
2022-08-26T20:39:08.941Z,15.95
2022-08-26T20:41:37.037Z,14.73
2022-08-26T20:44:07.088Z,14.82
2022-08-26T20:49:05.953Z,15.57
2022-08-26T20:51:37.487Z,16.50
2022-08-26T20:54:06.321Z,15.65
2022-08-26T20:56:34.497Z,15.77
2022-08-26T20:59:02.787Z,17.08
2022-08-26T21:01:34.874Z,16.98
2022-08-26T21:04:06.328Z,15.75
2022-08-26T21:06:34.983Z,18.08
2022-08-26T21:09:04.551Z,17.38
2022-08-26T21:11:33.390Z,16.48
2022-08-26T21:14:07.103Z,17.88
2022-08-26T21:16:47.493Z,17.15
2022-08-26T21:19:18.066Z,17.00
2022-08-26T21:21:47.221Z,15.48
2022-08-26T21:24:15.766Z,15.35
2022-08-26T21:26:44.136Z,14.73
2022-08-26T21:29:13.568Z,13.63
2022-08-26T21:31:46.493Z,13.85
2022-08-26T21:34:18.277Z,12.50
2022-08-26T21:36:47.063Z,12.88
2022-08-26T21:39:15.860Z,11.13
2022-08-26T21:41:45.155Z,11.80
2022-08-26T21:44:14.684Z,12.17
2022-08-26T21:46:44.046Z,12.95
2022-08-26T21:49:15.779Z,13.17
2022-08-26T21:51:48.594Z,12.70
2022-08-26T21:54:18.122Z,13.98
2022-08-26T21:56:47.912Z,12.75
2022-08-26T21:59:18.257Z,12.55
2022-08-26T22:01:47.146Z,11.20
2022-08-26T22:04:15.918Z,11.15
2022-08-26T22:06:47.304Z,11.05
2022-08-26T22:09:18.031Z,9.50
2022-08-26T22:11:47.526Z,9.18
2022-08-26T22:14:17.477Z,9.43
2022-08-26T22:16:50.570Z,9.30
2022-08-26T22:19:20.111Z,11.15
2022-08-26T22:21:50.861Z,9.73
2022-08-26T22:24:20.823Z,9.13
2022-08-26T22:26:50.050Z,9.10
2022-08-26T22:29:19.037Z,9.13
2022-08-26T22:31:47.672Z,8.88
2022-08-26T22:34:19.555Z,9.13
2022-08-26T22:36:50.621Z,9.57
2022-08-26T22:39:21.825Z,8.98
2022-08-26T22:41:50.289Z,8.70
2022-08-26T22:44:19.509Z,8.38
2022-08-26T22:46:48.806Z,9.80
2022-08-26T22:49:17.697Z,9.47
2022-08-26T22:51:46.780Z,9.13
2022-08-26T22:54:17.094Z,8.90
2022-08-26T22:56:45.858Z,9.57
2022-08-26T22:59:16.075Z,9.30
2022-08-26T23:04:13.154Z,9.25
2022-08-26T23:06:47.628Z,8.77
2022-08-26T23:09:18.983Z,8.68
2022-08-26T23:11:48.470Z,9.40
2022-08-26T23:14:17.563Z,9.75
2022-08-26T23:16:45.656Z,9.35
2022-08-26T23:19:15.854Z,10.40
2022-08-26T23:24:12.941Z,10.63
2022-08-26T23:26:43.692Z,10.40
2022-08-26T23:29:14.105Z,10.10
2022-08-26T23:31:43.449Z,11.63
2022-08-26T23:34:29.879Z,11.93
2022-08-26T23:36:59.042Z,11.57
2022-08-26T23:39:28.288Z,11.77
2022-08-26T23:41:58.137Z,10.80
2022-08-26T23:44:26.785Z,11.05
2022-08-26T23:46:55.156Z,10.95
2022-08-26T23:49:23.647Z,10.43
2022-08-26T23:52:05.749Z,9.35
2022-08-26T23:54:33.970Z,10.27
2022-08-26T23:57:03.600Z,10.00
2022-08-26T23:59:31.682Z,8.93
